createdAt,value
2022-12-04T00:01:56.782Z,-15.75
2022-12-04T00:04:59.988Z,-15.78
2022-12-04T00:08:04.435Z,-15.79
2022-12-04T00:11:08.934Z,-15.79
2022-12-04T00:14:12.128Z,-15.76
2022-12-04T00:17:15.587Z,-15.77
2022-12-04T00:20:18.765Z,-15.76
2022-12-04T00:23:22.126Z,-15.75
2022-12-04T00:26:29.652Z,-15.71
2022-12-04T00:29:33.683Z,-15.69
2022-12-04T00:32:36.948Z,-15.65
2022-12-04T00:35:40.427Z,-15.61
2022-12-04T00:38:44.705Z,-15.57
2022-12-04T00:41:47.866Z,-15.55
2022-12-04T00:44:50.935Z,-15.51
2022-12-04T00:47:54.081Z,-15.48
2022-12-04T00:50:58.964Z,-15.43
2022-12-04T00:54:02.081Z,-15.37
2022-12-04T00:57:05.213Z,-15.30
2022-12-04T01:00:09.161Z,-15.26
2022-12-04T01:03:12.607Z,-15.16
2022-12-04T01:06:28.532Z,-15.03
2022-12-04T01:09:31.645Z,-14.91
2022-12-04T01:12:34.777Z,-14.80
2022-12-04T01:15:43.176Z,-14.70
2022-12-04T01:18:47.529Z,-14.62
2022-12-04T01:21:50.861Z,-14.51
2022-12-04T01:24:57.431Z,-14.41
2022-12-04T01:28:00.521Z,-14.30
2022-12-04T01:31:13.927Z,-14.22
2022-12-04T01:34:17.281Z,-14.14
2022-12-04T01:37:20.456Z,-14.05
2022-12-04T01:40:23.827Z,-13.96
2022-12-04T01:43:29.471Z,-13.87
2022-12-04T01:46:32.651Z,-13.83
2022-12-04T01:49:47.008Z,-13.69
2022-12-04T01:52:50.200Z,-13.58
2022-12-04T01:55:53.612Z,-13.53
2022-12-04T01:59:00.280Z,-13.39
2022-12-04T02:02:11.632Z,-13.30
2022-12-04T02:05:17.578Z,-13.24
2022-12-04T02:08:20.830Z,-13.18
2022-12-04T02:11:42.608Z,-13.21
2022-12-04T02:15:06.801Z,-13.18
2022-12-04T02:18:19.634Z,-13.11
2022-12-04T02:21:31.378Z,-13.08
2022-12-04T02:25:21.823Z,-12.99
2022-12-04T02:28:29.962Z,-12.90
2022-12-04T02:31:41.969Z,-12.76
2022-12-04T02:34:50.717Z,-12.64
2022-12-04T02:38:04.333Z,-12.52
2022-12-04T02:41:19.991Z,-12.41
2022-12-04T02:44:24.939Z,-12.29
2022-12-04T02:47:29.129Z,-12.26
2022-12-04T02:50:37.489Z,-12.19
2022-12-04T02:53:45.684Z,-12.11
2022-12-04T02:56:51.505Z,-12.06
2022-12-04T02:59:57.459Z,-12.02
2022-12-04T03:03:08.679Z,-11.97
2022-12-04T03:06:14.852Z,-11.93
2022-12-04T03:09:36.384Z,-11.87
2022-12-04T03:12:49.797Z,-11.79
2022-12-04T03:16:16.478Z,-11.71
2022-12-04T03:19:26.194Z,-11.70
2022-12-04T03:22:32.404Z,-11.64
2022-12-04T03:25:42.034Z,-11.58
2022-12-04T03:29:20.619Z,-11.47
2022-12-04T03:32:29.816Z,-11.40
2022-12-04T03:35:45.463Z,-11.35
2022-12-04T03:38:58.113Z,-11.32
2022-12-04T03:42:22.880Z,-11.26
2022-12-04T03:45:48.847Z,-11.28
2022-12-04T03:48:58.715Z,-11.26
2022-12-04T03:52:24.545Z,-11.26
2022-12-04T03:55:30.465Z,-11.22
2022-12-04T03:58:36.241Z,-11.19
2022-12-04T04:01:49.246Z,-11.16
2022-12-04T04:04:55.827Z,-11.09
2022-12-04T04:08:23.724Z,-11.07
2022-12-04T04:11:36.977Z,-11.04
2022-12-04T04:15:01.678Z,-10.97
2022-12-04T04:18:40.355Z,-10.84
2022-12-04T04:22:03.689Z,-10.69
2022-12-04T04:25:12.238Z,-10.57
2022-12-04T04:28:47.876Z,-10.44
2022-12-04T04:32:26.908Z,-10.29
2022-12-04T04:35:54.100Z,-10.35
2022-12-04T04:39:17.652Z,-10.46
2022-12-04T04:42:51.149Z,-10.37
2022-12-04T04:46:01.530Z,-10.30
2022-12-04T04:49:08.203Z,-10.38
2022-12-04T04:52:11.605Z,-10.38
2022-12-04T04:55:16.850Z,-10.28
2022-12-04T04:58:22.383Z,-10.22
2022-12-04T05:01:28.767Z,-10.07
2022-12-04T05:04:31.910Z,-9.68
2022-12-04T05:07:34.995Z,-9.56
2022-12-04T05:10:38.153Z,-9.65
2022-12-04T05:13:41.931Z,-9.69
2022-12-04T05:16:45.132Z,-9.74
2022-12-04T05:19:54.162Z,-9.81
2022-12-04T05:22:58.352Z,-9.91
2022-12-04T05:26:02.428Z,-9.97
2022-12-04T05:29:05.549Z,-9.98
2022-12-04T05:32:08.933Z,-9.94
2022-12-04T05:35:12.122Z,-9.87
2022-12-04T05:38:15.218Z,-9.82
2022-12-04T05:41:18.320Z,-9.76
2022-12-04T05:44:21.496Z,-9.74
2022-12-04T05:47:24.810Z,-9.67
2022-12-04T05:50:27.863Z,-9.67
2022-12-04T05:53:30.986Z,-9.68
2022-12-04T05:56:34.113Z,-9.69
2022-12-04T05:59:37.419Z,-9.66
2022-12-04T06:02:40.536Z,-9.66
2022-12-04T06:05:43.795Z,-9.69
2022-12-04T06:08:47.093Z,-9.70
2022-12-04T06:11:50.274Z,-9.69
2022-12-04T06:14:53.497Z,-9.64
2022-12-04T06:17:56.701Z,-9.72
2022-12-04T06:20:59.885Z,-9.68
2022-12-04T06:24:03.674Z,-9.70
2022-12-04T06:30:31.065Z,-9.69
2022-12-04T06:33:35.009Z,-9.73
2022-12-04T06:36:38.368Z,-9.75
2022-12-04T06:39:41.563Z,-9.80
2022-12-04T06:42:45.246Z,-9.79
2022-12-04T06:45:48.514Z,-9.79
2022-12-04T06:48:52.507Z,-9.52
2022-12-04T06:51:55.674Z,-9.29
2022-12-04T06:54:59.699Z,-9.36
2022-12-04T06:58:02.865Z,-9.53
2022-12-04T07:01:11.190Z,-9.65
2022-12-04T07:04:14.374Z,-9.75
2022-12-04T07:07:17.509Z,-9.84
2022-12-04T07:10:20.673Z,-9.91
2022-12-04T07:13:23.821Z,-10.00
2022-12-04T07:16:28.600Z,-10.09
2022-12-04T07:19:31.820Z,-10.14
2022-12-04T07:22:34.894Z,-10.19
2022-12-04T07:25:41.593Z,-10.20
2022-12-04T07:28:47.693Z,-10.24
2022-12-04T07:31:50.923Z,-10.27
2022-12-04T07:34:54.012Z,-10.32
2022-12-04T07:37:57.157Z,-10.37
2022-12-04T07:41:02.167Z,-10.04
2022-12-04T07:44:05.390Z,-9.68
2022-12-04T07:47:08.566Z,-9.87
2022-12-04T07:50:11.906Z,-10.15
2022-12-04T07:53:15.241Z,-10.38
2022-12-04T07:56:18.952Z,-10.61
2022-12-04T07:59:22.696Z,-10.80
2022-12-04T08:02:26.399Z,-10.97
2022-12-04T08:05:29.838Z,-11.11
2022-12-04T08:08:33.542Z,-11.22
2022-12-04T08:11:36.932Z,-11.32
2022-12-04T08:14:40.063Z,-11.43
2022-12-04T08:17:43.356Z,-11.55
2022-12-04T08:20:46.821Z,-11.65
2022-12-04T08:23:52.190Z,-11.74
2022-12-04T08:26:55.383Z,-11.81
2022-12-04T08:29:58.595Z,-11.87
2022-12-04T08:33:01.738Z,-11.96
2022-12-04T08:36:12.496Z,-12.03
2022-12-04T08:39:16.892Z,-12.09
2022-12-04T08:42:20.005Z,-12.15
2022-12-04T08:45:23.195Z,-12.18
2022-12-04T08:48:26.558Z,-12.20
2022-12-04T08:51:32.302Z,-12.24
2022-12-04T08:54:36.779Z,-12.30
2022-12-04T08:57:40.022Z,-12.33
2022-12-04T09:00:44.119Z,-12.35
2022-12-04T09:03:47.440Z,-12.38
2022-12-04T09:06:50.484Z,-12.45
2022-12-04T09:09:53.546Z,-12.49
2022-12-04T09:12:56.778Z,-12.48
2022-12-04T09:16:03.868Z,-12.48
2022-12-04T09:19:06.961Z,-12.49
2022-12-04T09:22:10.088Z,-12.48
2022-12-04T09:25:13.315Z,-12.48
2022-12-04T09:28:16.562Z,-12.50
2022-12-04T09:31:20.962Z,-12.50
2022-12-04T09:34:24.285Z,-12.54
2022-12-04T09:37:27.612Z,-12.56
2022-12-04T09:40:38.663Z,-12.62
2022-12-04T09:43:47.684Z,-12.73
2022-12-04T09:47:32.394Z,-12.80
2022-12-04T09:50:41.399Z,-12.88
2022-12-04T09:53:54.345Z,-12.91
2022-12-04T09:57:06.476Z,-12.93
2022-12-04T10:00:15.662Z,-12.96
2022-12-04T10:03:25.384Z,-13.02
2022-12-04T10:06:55.736Z,-13.06
2022-12-04T10:10:13.725Z,-13.04
2022-12-04T10:13:35.608Z,-12.99
2022-12-04T10:16:50.712Z,-12.91
2022-12-04T10:20:29.227Z,-12.88
2022-12-04T10:23:32.330Z,-12.89
2022-12-04T10:26:42.392Z,-12.89
2022-12-04T10:29:51.405Z,-12.91
2022-12-04T10:33:04.443Z,-12.96
2022-12-04T10:36:11.127Z,-12.94
2022-12-04T10:39:28.921Z,-12.98
2022-12-04T10:42:54.361Z,-13.03
2022-12-04T10:45:57.684Z,-13.06
2022-12-04T10:49:10.202Z,-13.07
2022-12-04T10:52:13.803Z,-13.12
2022-12-04T10:55:28.013Z,-13.15
2022-12-04T10:58:31.111Z,-13.20
2022-12-04T11:01:36.193Z,-13.22
2022-12-04T11:04:41.024Z,-13.23
2022-12-04T11:07:48.403Z,-13.24
2022-12-04T11:11:04.219Z,-13.26
2022-12-04T11:14:15.319Z,-13.29
2022-12-04T11:17:20.246Z,-13.31
2022-12-04T11:20:28.431Z,-13.28
2022-12-04T11:23:45.332Z,-13.33
2022-12-04T11:26:49.362Z,-13.38
2022-12-04T11:29:53.213Z,-13.40
2022-12-04T11:32:57.407Z,-13.44
2022-12-04T11:36:03.945Z,-13.50
2022-12-04T11:39:21.554Z,-13.47
2022-12-04T11:42:29.089Z,-13.50
2022-12-04T11:45:33.619Z,-13.57
2022-12-04T11:48:44.453Z,-13.58
2022-12-04T11:52:06.319Z,-13.63
2022-12-04T11:55:29.056Z,-13.65
2022-12-04T11:58:52.857Z,-13.68
2022-12-04T12:02:18.198Z,-13.69
2022-12-04T12:05:43.416Z,-13.71
2022-12-04T12:08:56.574Z,-13.70
2022-12-04T12:12:09.286Z,-13.71
2022-12-04T12:15:44.467Z,-13.71
2022-12-04T12:18:59.547Z,-13.74
2022-12-04T12:22:22.437Z,-13.67
2022-12-04T12:25:52.449Z,-13.58
2022-12-04T12:29:16.925Z,-13.59
2022-12-04T12:32:35.618Z,-13.65
2022-12-04T12:36:11.231Z,-13.72
2022-12-04T12:39:26.957Z,-13.75
2022-12-04T12:42:40.687Z,-13.76
2022-12-04T12:45:56.505Z,-13.75
2022-12-04T12:49:08.247Z,-13.78
2022-12-04T12:52:29.070Z,-13.81
2022-12-04T12:55:42.031Z,-13.83
2022-12-04T12:58:52.703Z,-13.85
2022-12-04T13:02:24.753Z,-13.86
2022-12-04T13:05:35.810Z,-13.90
2022-12-04T13:09:01.193Z,-13.89
2022-12-04T13:12:15.496Z,-13.88
2022-12-04T13:15:23.384Z,-13.84
2022-12-04T13:18:28.923Z,-13.82
2022-12-04T13:21:36.870Z,-13.87
2022-12-04T13:25:18.495Z,-13.88
2022-12-04T13:28:30.925Z,-13.87
2022-12-04T13:31:56.738Z,-13.95
2022-12-04T13:35:09.911Z,-13.92
2022-12-04T13:38:47.030Z,-14.00
2022-12-04T13:42:05.026Z,-14.08
2022-12-04T13:45:12.780Z,-14.09
2022-12-04T13:48:27.353Z,-14.13
2022-12-04T13:51:40.114Z,-14.16
2022-12-04T13:54:43.676Z,-14.19
2022-12-04T13:57:55.784Z,-14.21
2022-12-04T14:01:23.042Z,-14.20
2022-12-04T14:04:44.566Z,-14.25
2022-12-04T14:08:07.279Z,-14.30
2022-12-04T14:11:17.628Z,-14.35
2022-12-04T14:14:29.639Z,-14.35
2022-12-04T14:17:34.985Z,-14.38
2022-12-04T14:20:39.178Z,-14.41
2022-12-04T14:23:42.831Z,-14.35
2022-12-04T14:30:22.489Z,-14.36
2022-12-04T14:33:28.831Z,-14.35
2022-12-04T14:36:38.237Z,-14.31
2022-12-04T14:39:47.750Z,-14.30
2022-12-04T14:42:51.907Z,-14.29
2022-12-04T14:46:07.832Z,-14.30
2022-12-04T14:49:37.823Z,-14.33
2022-12-04T14:52:55.435Z,-14.37
2022-12-04T14:56:07.975Z,-14.39
2022-12-04T14:59:18.883Z,-14.44
2022-12-04T15:02:41.305Z,-14.42
2022-12-04T15:05:45.516Z,-14.43
2022-12-04T15:09:17.146Z,-14.45
2022-12-04T15:12:34.806Z,-14.47
2022-12-04T15:15:38.120Z,-14.54
2022-12-04T15:18:41.326Z,-14.57
2022-12-04T15:21:44.687Z,-14.55
2022-12-04T15:24:47.864Z,-14.61
2022-12-04T15:27:53.863Z,-14.64
2022-12-04T15:31:00.130Z,-14.66
2022-12-04T15:34:08.752Z,-14.67
2022-12-04T15:37:23.323Z,-14.71
2022-12-04T15:40:28.900Z,-14.74
2022-12-04T15:43:40.112Z,-14.78
2022-12-04T15:46:44.400Z,-14.77
2022-12-04T15:49:47.483Z,-14.82
2022-12-04T15:52:59.549Z,-14.79
2022-12-04T15:56:06.646Z,-14.77
2022-12-04T15:59:19.105Z,-14.77
2022-12-04T16:02:45.473Z,-14.71
2022-12-04T16:05:49.045Z,-14.73
2022-12-04T16:09:16.168Z,-14.70
2022-12-04T16:12:24.509Z,-14.69
2022-12-04T16:15:50.833Z,-14.68
2022-12-04T16:18:54.015Z,-14.69
2022-12-04T16:21:57.289Z,-14.72
2022-12-04T16:25:00.675Z,-14.76
2022-12-04T16:28:04.027Z,-14.78
2022-12-04T16:31:08.102Z,-14.78
2022-12-04T16:34:13.783Z,-14.81
2022-12-04T16:37:22.740Z,-14.86
2022-12-04T16:40:25.948Z,-14.88
2022-12-04T16:43:30.128Z,-14.84
2022-12-04T16:46:33.333Z,-14.83
2022-12-04T16:49:36.470Z,-14.80
2022-12-04T16:52:39.506Z,-14.78
2022-12-04T16:55:42.548Z,-14.76
2022-12-04T16:58:47.312Z,-14.77
2022-12-04T17:01:52.265Z,-14.76
2022-12-04T17:04:57.828Z,-14.81
2022-12-04T17:08:03.166Z,-14.82
2022-12-04T17:11:06.708Z,-14.83
2022-12-04T17:14:10.323Z,-14.87
2022-12-04T17:17:13.387Z,-14.88
2022-12-04T17:20:20.867Z,-14.86
2022-12-04T17:23:23.874Z,-14.87
2022-12-04T17:26:28.055Z,-14.86
2022-12-04T17:29:30.822Z,-14.86
2022-12-04T17:32:35.595Z,-14.93
2022-12-04T17:35:44.120Z,-14.96
2022-12-04T17:38:47.213Z,-15.00
2022-12-04T17:41:50.354Z,-15.03
2022-12-04T17:44:53.747Z,-15.04
2022-12-04T17:47:56.999Z,-15.03
2022-12-04T17:51:08.731Z,-15.02
2022-12-04T17:54:12.927Z,-14.99
2022-12-04T17:57:17.487Z,-14.94
2022-12-04T18:00:20.663Z,-14.91
2022-12-04T18:03:23.800Z,-14.88
2022-12-04T18:06:35.287Z,-14.86
2022-12-04T18:09:39.157Z,-14.87
2022-12-04T18:12:42.200Z,-14.88
2022-12-04T18:15:45.291Z,-14.87
2022-12-04T18:18:48.471Z,-14.91
2022-12-04T18:21:51.841Z,-14.90
2022-12-04T18:24:55.223Z,-14.93
2022-12-04T18:27:59.676Z,-14.91
2022-12-04T18:31:04.647Z,-14.94
2022-12-04T18:34:08.659Z,-14.92
2022-12-04T18:37:11.853Z,-14.89
2022-12-04T18:40:15.339Z,-14.91
2022-12-04T18:43:19.511Z,-14.93
2022-12-04T18:46:22.548Z,-14.92
2022-12-04T18:49:25.758Z,-14.95
2022-12-04T18:52:28.772Z,-14.96
2022-12-04T18:55:35.351Z,-14.97
2022-12-04T18:58:38.394Z,-15.04
2022-12-04T19:01:42.131Z,-15.11
2022-12-04T19:04:45.131Z,-15.12
2022-12-04T19:07:50.616Z,-15.11
2022-12-04T19:10:53.748Z,-15.14
2022-12-04T19:13:58.393Z,-15.08
2022-12-04T19:17:01.443Z,-14.96
2022-12-04T19:20:06.849Z,-14.87
2022-12-04T19:23:09.940Z,-14.77
2022-12-04T19:26:13.007Z,-14.71
2022-12-04T19:29:16.222Z,-14.67
2022-12-04T19:32:19.294Z,-14.66
2022-12-04T19:35:22.374Z,-14.65
2022-12-04T19:38:26.062Z,-14.63
2022-12-04T19:41:31.563Z,-14.57
2022-12-04T19:44:50.336Z,-14.52
2022-12-04T19:47:53.452Z,-14.55
2022-12-04T19:50:56.793Z,-14.58
2022-12-04T19:54:01.661Z,-14.60
2022-12-04T19:57:04.824Z,-14.60
2022-12-04T20:00:08.709Z,-14.61
2022-12-04T20:03:14.777Z,-14.62
2022-12-04T20:06:21.034Z,-14.66
2022-12-04T20:09:25.930Z,-14.66
2022-12-04T20:12:29.003Z,-14.67
2022-12-04T20:15:35.402Z,-14.64
2022-12-04T20:18:39.727Z,-14.54
2022-12-04T20:21:43.194Z,-14.51
2022-12-04T20:24:46.275Z,-14.45
2022-12-04T20:27:49.451Z,-14.45
2022-12-04T20:30:53.135Z,-14.42
2022-12-04T20:33:58.307Z,-14.45
2022-12-04T20:37:01.458Z,-14.46
2022-12-04T20:40:08.170Z,-14.51
2022-12-04T20:43:11.341Z,-14.54
2022-12-04T20:46:25.595Z,-14.49
2022-12-04T20:49:28.703Z,-14.50
2022-12-04T20:52:31.806Z,-14.49
2022-12-04T20:55:34.854Z,-14.39
2022-12-04T20:58:38.058Z,-14.43
2022-12-04T21:01:41.866Z,-14.40
2022-12-04T21:04:45.047Z,-14.40
2022-12-04T21:07:48.127Z,-14.38
2022-12-04T21:10:51.239Z,-14.39
2022-12-04T21:14:14.141Z,-14.38
2022-12-04T21:17:19.748Z,-14.38
2022-12-04T21:20:22.901Z,-14.35
2022-12-04T21:23:26.284Z,-14.34
2022-12-04T21:26:31.746Z,-14.34
2022-12-04T21:29:35.391Z,-14.31
2022-12-04T21:32:38.433Z,-14.29
2022-12-04T21:35:41.530Z,-14.25
2022-12-04T21:38:44.732Z,-14.23
2022-12-04T21:42:06.328Z,-14.23
2022-12-04T21:45:09.950Z,-14.18
2022-12-04T21:48:13.002Z,-14.15
2022-12-04T21:51:32.960Z,-14.18
2022-12-04T21:54:39.153Z,-14.16
2022-12-04T21:57:42.305Z,-14.16
2022-12-04T22:00:46.324Z,-14.16
2022-12-04T22:03:51.987Z,-14.19
2022-12-04T22:06:55.189Z,-14.19
2022-12-04T22:09:58.580Z,-14.16
2022-12-04T22:13:02.038Z,-14.19
2022-12-04T22:16:07.666Z,-14.18
2022-12-04T22:19:12.008Z,-14.08
2022-12-04T22:22:15.135Z,-14.06
2022-12-04T22:25:18.412Z,-14.11
2022-12-04T22:28:21.622Z,-14.13
2022-12-04T22:31:27.467Z,-14.15
2022-12-04T22:34:30.694Z,-14.11
2022-12-04T22:37:33.753Z,-14.06
2022-12-04T22:40:38.788Z,-14.12
2022-12-04T22:43:42.387Z,-14.13
2022-12-04T22:46:45.571Z,-14.14
2022-12-04T22:49:48.745Z,-14.12
2022-12-04T22:52:51.859Z,-14.12
2022-12-04T22:55:55.147Z,-14.11
2022-12-04T22:58:59.785Z,-14.12
2022-12-04T23:02:02.908Z,-14.06
2022-12-04T23:05:06.251Z,-14.15
2022-12-04T23:08:09.582Z,-14.16
2022-12-04T23:11:24.249Z,-14.16
2022-12-04T23:14:29.437Z,-14.16
2022-12-04T23:17:32.903Z,-14.18
2022-12-04T23:20:35.983Z,-14.15
2022-12-04T23:23:40.700Z,-14.13
2022-12-04T23:26:46.243Z,-14.08
2022-12-04T23:29:53.669Z,-14.10
2022-12-04T23:32:57.049Z,-14.12
2022-12-04T23:36:02.274Z,-14.11
2022-12-04T23:39:05.355Z,-14.13
2022-12-04T23:42:08.363Z,-14.12
2022-12-04T23:45:11.531Z,-14.13
2022-12-04T23:48:14.599Z,-14.15
2022-12-04T23:51:20.155Z,-14.17
2022-12-04T23:54:23.230Z,-14.17
2022-12-04T23:57:30.490Z,-14.19
